Current | Forecast
Updated: 10:00 AM JST on April 23, 2018
Observed at Yamaguchi Ube, Japan
Temperature 63°F
Humidity 88%
Dew Point 59°F
Wind East at 8 mph
Pressure 30.04 in (Steady)
Conditions Mostly Cloudy
Visibility 6.2 miles
UV 5 out of 16
Clouds (FEW) : 2000 ft
Mostly Cloudy (BKN) : 5000 ft
Yesterday's Maximum 72°F
Yesterday's Minimum 57°F approx.
Yesterday's Heating Degree Days 1 approx.
Sunrise5:34 AM JST
Sunset6:51 PM JST
Moon Rise11:50 AM JST
Moon Set1:10 AM JST
Moon PhaseMoon Phase
First Quarter
Raw METARMETAR RJDC 230100Z 09007KT 9999 FEW020 BKN050 17/15 Q1017


Monday
. High: 71° F.
Tuesday
. High: 80° F.
Wednesday
. High: 73° F.
Thursday
. High: 75° F.
Friday
. High: 77° F.
Saturday
. High: 82° F.
Sunday
. High: 78° F.
Monday
. High: 82° F.

Units: English | Metric

Find the Weather for any City, State or Zipcode, or Country:

U.S. State List | Severe Weather | Tropical Storms | Ski Conditions
United States | Canada | Central America | South America | Asia | Europe | Australia | Africa | Islands

Weather Underground

© Copyright 2018
The Weather Company, LLC